sensor_id;sensor_type;location;lat;lon;timestamp;temperature;humidity
4509;DHT22;2267;48.816;9.230;2023-02-15T00:01:57;4.90;98.20
4509;DHT22;2267;48.816;9.230;2023-02-15T00:04:25;4.90;98.20
4509;DHT22;2267;48.816;9.230;2023-02-15T00:07:10;4.90;98.40
4509;DHT22;2267;48.816;9.230;2023-02-15T00:09:37;4.90;98.40
4509;DHT22;2267;48.816;9.230;2023-02-15T00:12:04;4.90;98.40
4509;DHT22;2267;48.816;9.230;2023-02-15T00:14:31;4.80;98.30
4509;DHT22;2267;48.816;9.230;2023-02-15T00:16:57;4.80;98.40
4509;DHT22;2267;48.816;9.230;2023-02-15T00:19:26;4.80;98.30
4509;DHT22;2267;48.816;9.230;2023-02-15T00:21:53;4.80;98.10
4509;DHT22;2267;48.816;9.230;2023-02-15T00:24:20;4.70;98.00
4509;DHT22;2267;48.816;9.230;2023-02-15T00:26:47;4.70;98.20
4509;DHT22;2267;48.816;9.230;2023-02-15T00:29:15;4.70;98.20
4509;DHT22;2267;48.816;9.230;2023-02-15T00:31:42;4.70;98.20
4509;DHT22;2267;48.816;9.230;2023-02-15T00:36:40;4.60;98.10
4509;DHT22;2267;48.816;9.230;2023-02-15T00:39:07;4.60;98.10
4509;DHT22;2267;48.816;9.230;2023-02-15T00:41:34;4.60;98.20
4509;DHT22;2267;48.816;9.230;2023-02-15T00:44:01;4.60;98.40
4509;DHT22;2267;48.816;9.230;2023-02-15T00:46:27;4.60;98.30
4509;DHT22;2267;48.816;9.230;2023-02-15T00:48:54;4.50;98.20
4509;DHT22;2267;48.816;9.230;2023-02-15T00:51:21;4.50;98.50
4509;DHT22;2267;48.816;9.230;2023-02-15T00:53:48;4.50;98.60
4509;DHT22;2267;48.816;9.230;2023-02-15T00:56:15;4.50;98.50
4509;DHT22;2267;48.816;9.230;2023-02-15T00:58:42;4.30;98.40
4509;DHT22;2267;48.816;9.230;2023-02-15T01:01:11;4.50;98.50
4509;DHT22;2267;48.816;9.230;2023-02-15T01:03:39;4.40;98.50
4509;DHT22;2267;48.816;9.230;2023-02-15T01:06:08;4.40;98.60
4509;DHT22;2267;48.816;9.230;2023-02-15T01:08:35;4.40;98.60
4509;DHT22;2267;48.816;9.230;2023-02-15T01:11:11;4.30;98.60
4509;DHT22;2267;48.816;9.230;2023-02-15T01:13:39;4.30;98.50
4509;DHT22;2267;48.816;9.230;2023-02-15T01:16:07;4.30;98.40
4509;DHT22;2267;48.816;9.230;2023-02-15T01:18:34;4.30;98.50
4509;DHT22;2267;48.816;9.230;2023-02-15T01:21:10;4.20;98.40
4509;DHT22;2267;48.816;9.230;2023-02-15T01:23:37;4.20;98.40
4509;DHT22;2267;48.816;9.230;2023-02-15T01:26:04;4.20;98.20
4509;DHT22;2267;48.816;9.230;2023-02-15T01:28:31;4.20;98.00
4509;DHT22;2267;48.816;9.230;2023-02-15T01:30:58;4.10;98.00
4509;DHT22;2267;48.816;9.230;2023-02-15T01:33:25;4.10;98.10
4509;DHT22;2267;48.816;9.230;2023-02-15T01:35:58;4.10;98.20
4509;DHT22;2267;48.816;9.230;2023-02-15T01:38:26;4.10;98.20
4509;DHT22;2267;48.816;9.230;2023-02-15T01:40:53;4.10;98.20
4509;DHT22;2267;48.816;9.230;2023-02-15T01:43:20;4.10;98.10
4509;DHT22;2267;48.816;9.230;2023-02-15T01:45:49;4.00;98.20
4509;DHT22;2267;48.816;9.230;2023-02-15T01:48:22;4.00;98.30
4509;DHT22;2267;48.816;9.230;2023-02-15T01:50:57;4.00;98.40
4509;DHT22;2267;48.816;9.230;2023-02-15T01:53:33;4.00;98.40
4509;DHT22;2267;48.816;9.230;2023-02-15T01:56:08;4.00;98.50
4509;DHT22;2267;48.816;9.230;2023-02-15T01:58:36;4.00;98.50
4509;DHT22;2267;48.816;9.230;2023-02-15T02:01:04;3.90;98.30
4509;DHT22;2267;48.816;9.230;2023-02-15T02:06:26;3.90;98.20
4509;DHT22;2267;48.816;9.230;2023-02-15T02:08:54;3.90;98.20
4509;DHT22;2267;48.816;9.230;2023-02-15T02:11:21;3.80;98.20
4509;DHT22;2267;48.816;9.230;2023-02-15T02:13:48;3.80;98.00
4509;DHT22;2267;48.816;9.230;2023-02-15T02:27:39;3.70;98.10
4509;DHT22;2267;48.816;9.230;2023-02-15T02:30:29;3.70;98.20
4509;DHT22;2267;48.816;9.230;2023-02-15T02:33:26;3.70;98.50
4509;DHT22;2267;48.816;9.230;2023-02-15T02:41:21;3.60;98.40
4509;DHT22;2267;48.816;9.230;2023-02-15T02:43:55;3.60;98.70
4509;DHT22;2267;48.816;9.230;2023-02-15T02:49:14;3.50;98.90
4509;DHT22;2267;48.816;9.230;2023-02-15T02:51:41;3.50;98.90
4509;DHT22;2267;48.816;9.230;2023-02-15T02:54:08;3.50;99.10
4509;DHT22;2267;48.816;9.230;2023-02-15T02:56:47;3.50;99.10
4509;DHT22;2267;48.816;9.230;2023-02-15T02:59:27;3.50;99.00
4509;DHT22;2267;48.816;9.230;2023-02-15T03:04:35;3.50;98.60
4509;DHT22;2267;48.816;9.230;2023-02-15T03:07:07;3.40;98.30
4509;DHT22;2267;48.816;9.230;2023-02-15T03:09:40;3.40;98.30
4509;DHT22;2267;48.816;9.230;2023-02-15T03:12:20;3.40;98.40
4509;DHT22;2267;48.816;9.230;2023-02-15T03:14:53;3.40;98.50
4509;DHT22;2267;48.816;9.230;2023-02-15T03:17:23;3.40;98.30
4509;DHT22;2267;48.816;9.230;2023-02-15T03:19:55;3.30;98.30
4509;DHT22;2267;48.816;9.230;2023-02-15T03:22:29;3.30;98.20
4509;DHT22;2267;48.816;9.230;2023-02-15T03:25:26;3.30;98.00
4509;DHT22;2267;48.816;9.230;2023-02-15T03:27:55;3.30;98.10
4509;DHT22;2267;48.816;9.230;2023-02-15T03:30:22;3.30;98.10
4509;DHT22;2267;48.816;9.230;2023-02-15T03:32:51;3.20;98.20
4509;DHT22;2267;48.816;9.230;2023-02-15T03:35:22;3.20;98.40
4509;DHT22;2267;48.816;9.230;2023-02-15T03:37:59;3.20;98.30
4509;DHT22;2267;48.816;9.230;2023-02-15T03:40:32;3.20;98.50
4509;DHT22;2267;48.816;9.230;2023-02-15T03:43:54;3.20;98.40
4509;DHT22;2267;48.816;9.230;2023-02-15T03:46:42;3.20;98.40
4509;DHT22;2267;48.816;9.230;2023-02-15T03:52:16;3.10;98.70
4509;DHT22;2267;48.816;9.230;2023-02-15T03:54:43;3.10;98.70
4509;DHT22;2267;48.816;9.230;2023-02-15T03:57:18;3.10;98.80
4509;DHT22;2267;48.816;9.230;2023-02-15T04:05:29;3.00;98.90
4509;DHT22;2267;48.816;9.230;2023-02-15T04:07:56;3.00;98.90
4509;DHT22;2267;48.816;9.230;2023-02-15T04:10:23;2.90;98.90
4509;DHT22;2267;48.816;9.230;2023-02-15T04:13:08;2.90;99.00
4509;DHT22;2267;48.816;9.230;2023-02-15T04:15:35;2.90;98.90
4509;DHT22;2267;48.816;9.230;2023-02-15T04:18:20;2.90;99.00
4509;DHT22;2267;48.816;9.230;2023-02-15T04:20:47;2.90;99.00
4509;DHT22;2267;48.816;9.230;2023-02-15T04:23:32;2.90;99.10
4509;DHT22;2267;48.816;9.230;2023-02-15T04:26:18;2.80;98.90
4509;DHT22;2267;48.816;9.230;2023-02-15T04:28:44;2.80;99.00
4509;DHT22;2267;48.816;9.230;2023-02-15T04:31:11;2.80;98.90
4509;DHT22;2267;48.816;9.230;2023-02-15T04:33:38;2.80;98.80
4509;DHT22;2267;48.816;9.230;2023-02-15T04:36:05;2.80;98.90
4509;DHT22;2267;48.816;9.230;2023-02-15T04:38:31;2.80;99.00
4509;DHT22;2267;48.816;9.230;2023-02-15T04:40:58;2.80;99.00
4509;DHT22;2267;48.816;9.230;2023-02-15T04:43:25;2.80;99.00
4509;DHT22;2267;48.816;9.230;2023-02-15T04:45:52;2.80;99.00
4509;DHT22;2267;48.816;9.230;2023-02-15T04:48:19;2.80;99.00
4509;DHT22;2267;48.816;9.230;2023-02-15T04:50:45;2.70;99.00
4509;DHT22;2267;48.816;9.230;2023-02-15T04:53:12;2.70;99.10
4509;DHT22;2267;48.816;9.230;2023-02-15T04:55:39;2.70;99.30
4509;DHT22;2267;48.816;9.230;2023-02-15T04:58:06;2.70;99.30
4509;DHT22;2267;48.816;9.230;2023-02-15T05:00:33;2.70;99.40
4509;DHT22;2267;48.816;9.230;2023-02-15T05:02:59;2.70;99.40
4509;DHT22;2267;48.816;9.230;2023-02-15T05:05:26;2.70;99.20
4509;DHT22;2267;48.816;9.230;2023-02-15T05:07:53;2.70;98.80
4509;DHT22;2267;48.816;9.230;2023-02-15T05:10:20;2.60;98.60
4509;DHT22;2267;48.816;9.230;2023-02-15T05:12:47;2.60;98.40
4509;DHT22;2267;48.816;9.230;2023-02-15T05:15:13;2.50;98.20
4509;DHT22;2267;48.816;9.230;2023-02-15T05:17:40;2.50;98.20
4509;DHT22;2267;48.816;9.230;2023-02-15T05:20:07;2.50;98.10
4509;DHT22;2267;48.816;9.230;2023-02-15T05:22:34;2.40;98.00
4509;DHT22;2267;48.816;9.230;2023-02-15T05:25:01;2.40;98.00
4509;DHT22;2267;48.816;9.230;2023-02-15T05:27:46;2.40;98.00
4509;DHT22;2267;48.816;9.230;2023-02-15T05:30:32;2.40;98.20
4509;DHT22;2267;48.816;9.230;2023-02-15T05:32:59;2.30;98.20
4509;DHT22;2267;48.816;9.230;2023-02-15T05:35:26;2.30;98.30
4509;DHT22;2267;48.816;9.230;2023-02-15T05:37:52;2.30;98.40
4509;DHT22;2267;48.816;9.230;2023-02-15T05:40:19;1.80;98.30
4509;DHT22;2267;48.816;9.230;2023-02-15T05:42:46;2.30;98.60
4509;DHT22;2267;48.816;9.230;2023-02-15T05:45:13;2.30;98.60
4509;DHT22;2267;48.816;9.230;2023-02-15T05:47:39;2.30;98.70
4509;DHT22;2267;48.816;9.230;2023-02-15T05:50:07;2.30;98.70
4509;DHT22;2267;48.816;9.230;2023-02-15T05:52:34;2.20;98.60
4509;DHT22;2267;48.816;9.230;2023-02-15T05:55:01;2.20;98.60
4509;DHT22;2267;48.816;9.230;2023-02-15T05:57:29;2.20;98.80
4509;DHT22;2267;48.816;9.230;2023-02-15T05:59:56;2.20;99.00
4509;DHT22;2267;48.816;9.230;2023-02-15T06:02:22;2.20;99.00
4509;DHT22;2267;48.816;9.230;2023-02-15T06:04:49;2.20;99.00
4509;DHT22;2267;48.816;9.230;2023-02-15T06:07:16;2.10;98.90
4509;DHT22;2267;48.816;9.230;2023-02-15T06:09:43;2.10;99.00
4509;DHT22;2267;48.816;9.230;2023-02-15T06:12:09;2.10;99.10
4509;DHT22;2267;48.816;9.230;2023-02-15T06:14:36;2.10;99.20
4509;DHT22;2267;48.816;9.230;2023-02-15T06:17:03;2.10;99.20
4509;DHT22;2267;48.816;9.230;2023-02-15T06:19:30;2.10;99.20
4509;DHT22;2267;48.816;9.230;2023-02-15T06:21:56;2.10;99.20
4509;DHT22;2267;48.816;9.230;2023-02-15T06:24:23;2.10;99.20
4509;DHT22;2267;48.816;9.230;2023-02-15T06:26:50;2.10;99.30
4509;DHT22;2267;48.816;9.230;2023-02-15T06:29:17;2.10;99.40
4509;DHT22;2267;48.816;9.230;2023-02-15T06:31:44;2.10;99.50
4509;DHT22;2267;48.816;9.230;2023-02-15T06:34:10;2.10;99.60
4509;DHT22;2267;48.816;9.230;2023-02-15T06:36:37;2.20;99.70
4509;DHT22;2267;48.816;9.230;2023-02-15T06:39:04;2.20;99.30
4509;DHT22;2267;48.816;9.230;2023-02-15T06:41:31;2.20;99.10
4509;DHT22;2267;48.816;9.230;2023-02-15T06:43:57;2.10;99.00
4509;DHT22;2267;48.816;9.230;2023-02-15T06:46:24;2.10;98.90
4509;DHT22;2267;48.816;9.230;2023-02-15T06:48:51;2.10;98.80
4509;DHT22;2267;48.816;9.230;2023-02-15T06:51:18;2.10;98.80
4509;DHT22;2267;48.816;9.230;2023-02-15T06:53:45;2.00;98.60
4509;DHT22;2267;48.816;9.230;2023-02-15T06:56:12;2.00;98.80
4509;DHT22;2267;48.816;9.230;2023-02-15T06:58:40;2.00;98.80
4509;DHT22;2267;48.816;9.230;2023-02-15T07:01:08;2.00;98.90
4509;DHT22;2267;48.816;9.230;2023-02-15T07:03:35;2.00;98.90
4509;DHT22;2267;48.816;9.230;2023-02-15T07:06:04;2.10;98.90
4509;DHT22;2267;48.816;9.230;2023-02-15T07:08:32;2.10;99.00
4509;DHT22;2267;48.816;9.230;2023-02-15T07:10:59;2.10;99.20
4509;DHT22;2267;48.816;9.230;2023-02-15T07:13:46;2.10;99.10
4509;DHT22;2267;48.816;9.230;2023-02-15T07:16:13;2.10;99.10
4509;DHT22;2267;48.816;9.230;2023-02-15T07:18:40;2.10;99.10
4509;DHT22;2267;48.816;9.230;2023-02-15T07:21:07;2.20;99.20
4509;DHT22;2267;48.816;9.230;2023-02-15T07:23:35;2.10;99.20
4509;DHT22;2267;48.816;9.230;2023-02-15T07:26:02;2.10;99.20
4509;DHT22;2267;48.816;9.230;2023-02-15T07:28:30;3.10;99.70
4509;DHT22;2267;48.816;9.230;2023-02-15T07:30:56;2.10;99.40
4509;DHT22;2267;48.816;9.230;2023-02-15T07:33:24;2.10;99.30
4509;DHT22;2267;48.816;9.230;2023-02-15T07:35:55;2.10;99.30
4509;DHT22;2267;48.816;9.230;2023-02-15T07:38:25;2.10;99.20
4509;DHT22;2267;48.816;9.230;2023-02-15T07:40:58;2.10;99.20
4509;DHT22;2267;48.816;9.230;2023-02-15T07:43:26;2.10;99.20
4509;DHT22;2267;48.816;9.230;2023-02-15T07:45:52;2.20;99.30
4509;DHT22;2267;48.816;9.230;2023-02-15T07:48:19;2.20;99.40
4509;DHT22;2267;48.816;9.230;2023-02-15T07:50:47;2.20;99.30
4509;DHT22;2267;48.816;9.230;2023-02-15T07:53:14;2.20;99.50
4509;DHT22;2267;48.816;9.230;2023-02-15T07:55:40;2.30;99.60
4509;DHT22;2267;48.816;9.230;2023-02-15T07:58:07;2.30;99.60
4509;DHT22;2267;48.816;9.230;2023-02-15T08:00:34;2.30;99.60
4509;DHT22;2267;48.816;9.230;2023-02-15T08:03:25;2.40;99.70
4509;DHT22;2267;48.816;9.230;2023-02-15T08:05:57;2.40;99.90
4509;DHT22;2267;48.816;9.230;2023-02-15T08:08:28;2.40;99.90
4509;DHT22;2267;48.816;9.230;2023-02-15T08:13:53;2.40;99.90
4509;DHT22;2267;48.816;9.230;2023-02-15T08:19:22;2.50;99.90
4509;DHT22;2267;48.816;9.230;2023-02-15T08:21:57;2.60;99.90
4509;DHT22;2267;48.816;9.230;2023-02-15T08:24:26;2.60;99.90
4509;DHT22;2267;48.816;9.230;2023-02-15T08:26:54;2.50;99.90
4509;DHT22;2267;48.816;9.230;2023-02-15T08:29:23;2.50;99.90
4509;DHT22;2267;48.816;9.230;2023-02-15T08:31:53;2.60;99.90
4509;DHT22;2267;48.816;9.230;2023-02-15T08:34:20;2.60;99.90
4509;DHT22;2267;48.816;9.230;2023-02-15T08:36:47;2.60;99.90
4509;DHT22;2267;48.816;9.230;2023-02-15T08:39:15;2.60;99.90
4509;DHT22;2267;48.816;9.230;2023-02-15T08:41:43;2.60;99.90
4509;DHT22;2267;48.816;9.230;2023-02-15T08:44:11;2.60;99.90
4509;DHT22;2267;48.816;9.230;2023-02-15T08:46:40;2.60;99.90
4509;DHT22;2267;48.816;9.230;2023-02-15T08:49:09;2.60;99.90
4509;DHT22;2267;48.816;9.230;2023-02-15T08:51:37;2.70;99.90
4509;DHT22;2267;48.816;9.230;2023-02-15T08:54:07;2.70;99.90
4509;DHT22;2267;48.816;9.230;2023-02-15T08:56:38;2.70;99.90
4509;DHT22;2267;48.816;9.230;2023-02-15T08:59:10;2.70;99.90
4509;DHT22;2267;48.816;9.230;2023-02-15T09:01:37;2.70;99.90
4509;DHT22;2267;48.816;9.230;2023-02-15T09:04:06;2.80;99.90
4509;DHT22;2267;48.816;9.230;2023-02-15T09:06:37;2.80;99.90
4509;DHT22;2267;48.816;9.230;2023-02-15T09:09:05;2.80;99.90
4509;DHT22;2267;48.816;9.230;2023-02-15T09:11:51;2.80;99.90
4509;DHT22;2267;48.816;9.230;2023-02-15T09:14:24;2.90;99.90
4509;DHT22;2267;48.816;9.230;2023-02-15T09:16:53;2.90;99.90
4509;DHT22;2267;48.816;9.230;2023-02-15T09:19:22;2.90;99.90
4509;DHT22;2267;48.816;9.230;2023-02-15T09:21:49;2.90;99.90
4509;DHT22;2267;48.816;9.230;2023-02-15T09:24:17;3.00;99.90
4509;DHT22;2267;48.816;9.230;2023-02-15T09:26:46;3.00;99.90
4509;DHT22;2267;48.816;9.230;2023-02-15T09:29:14;3.00;99.90
4509;DHT22;2267;48.816;9.230;2023-02-15T09:31:46;4.00;99.90
4509;DHT22;2267;48.816;9.230;2023-02-15T09:34:14;3.10;99.90
4509;DHT22;2267;48.816;9.230;2023-02-15T09:36:45;3.10;99.90
4509;DHT22;2267;48.816;9.230;2023-02-15T09:39:18;3.20;99.90
4509;DHT22;2267;48.816;9.230;2023-02-15T09:42:05;3.20;99.90
4509;DHT22;2267;48.816;9.230;2023-02-15T09:51:20;3.30;99.90
4509;DHT22;2267;48.816;9.230;2023-02-15T09:54:15;3.30;99.90
4509;DHT22;2267;48.816;9.230;2023-02-15T09:56:49;3.40;99.90
4509;DHT22;2267;48.816;9.230;2023-02-15T10:02:22;3.50;99.90
4509;DHT22;2267;48.816;9.230;2023-02-15T10:05:04;3.50;99.90
4509;DHT22;2267;48.816;9.230;2023-02-15T10:08:04;3.60;99.90
4509;DHT22;2267;48.816;9.230;2023-02-15T10:13:43;3.70;99.90
4509;DHT22;2267;48.816;9.230;2023-02-15T10:16:29;3.80;99.90
4509;DHT22;2267;48.816;9.230;2023-02-15T10:22:11;5.20;99.90
4509;DHT22;2267;48.816;9.230;2023-02-15T10:25:01;4.30;99.90
4509;DHT22;2267;48.816;9.230;2023-02-15T10:27:36;4.60;99.90
4509;DHT22;2267;48.816;9.230;2023-02-15T10:30:15;5.00;99.90
4509;DHT22;2267;48.816;9.230;2023-02-15T10:33:31;5.40;99.90
4509;DHT22;2267;48.816;9.230;2023-02-15T10:36:12;5.80;99.90
4509;DHT22;2267;48.816;9.230;2023-02-15T10:39:16;6.20;99.90
4509;DHT22;2267;48.816;9.230;2023-02-15T10:41:47;6.50;99.90
4509;DHT22;2267;48.816;9.230;2023-02-15T10:44:34;6.80;99.90
4509;DHT22;2267;48.816;9.230;2023-02-15T11:06:23;8.60;98.00
4509;DHT22;2267;48.816;9.230;2023-02-15T11:09:04;8.80;97.80
4509;DHT22;2267;48.816;9.230;2023-02-15T11:11:42;8.90;97.60
4509;DHT22;2267;48.816;9.230;2023-02-15T11:17:02;9.30;97.50
4509;DHT22;2267;48.816;9.230;2023-02-15T11:19:34;9.40;97.10
4509;DHT22;2267;48.816;9.230;2023-02-15T11:22:04;9.50;96.90
4509;DHT22;2267;48.816;9.230;2023-02-15T11:24:39;9.70;96.80
4509;DHT22;2267;48.816;9.230;2023-02-15T11:29:59;9.90;96.50
4509;DHT22;2267;48.816;9.230;2023-02-15T11:32:33;10.00;95.80
4509;DHT22;2267;48.816;9.230;2023-02-15T11:40:48;10.30;95.20
4509;DHT22;2267;48.816;9.230;2023-02-15T11:43:37;10.40;95.00
4509;DHT22;2267;48.816;9.230;2023-02-15T11:46:07;10.50;95.00
4509;DHT22;2267;48.816;9.230;2023-02-15T11:48:38;10.50;94.70
4509;DHT22;2267;48.816;9.230;2023-02-15T11:51:08;10.60;94.70
4509;DHT22;2267;48.816;9.230;2023-02-15T11:53:38;10.60;94.60
4509;DHT22;2267;48.816;9.230;2023-02-15T11:56:16;10.70;94.70
4509;DHT22;2267;48.816;9.230;2023-02-15T11:58:47;10.80;94.50
4509;DHT22;2267;48.816;9.230;2023-02-15T12:03:57;11.00;94.20
4509;DHT22;2267;48.816;9.230;2023-02-15T12:06:34;11.10;94.10
4509;DHT22;2267;48.816;9.230;2023-02-15T12:09:18;11.30;93.90
4509;DHT22;2267;48.816;9.230;2023-02-15T12:11:49;11.50;93.70
4509;DHT22;2267;48.816;9.230;2023-02-15T12:14:16;11.70;93.70
4509;DHT22;2267;48.816;9.230;2023-02-15T12:16:51;11.80;93.50
4509;DHT22;2267;48.816;9.230;2023-02-15T12:21:51;12.20;93.20
4509;DHT22;2267;48.816;9.230;2023-02-15T12:24:26;12.30;93.00
4509;DHT22;2267;48.816;9.230;2023-02-15T12:29:39;12.60;92.60
4509;DHT22;2267;48.816;9.230;2023-02-15T12:32:16;12.80;92.80
4509;DHT22;2267;48.816;9.230;2023-02-15T12:34:45;13.00;92.30
4509;DHT22;2267;48.816;9.230;2023-02-15T12:37:23;13.20;92.10
4509;DHT22;2267;48.816;9.230;2023-02-15T12:39:58;13.30;92.10
4509;DHT22;2267;48.816;9.230;2023-02-15T12:42:28;13.40;91.90
4509;DHT22;2267;48.816;9.230;2023-02-15T12:45:04;13.50;91.90
4509;DHT22;2267;48.816;9.230;2023-02-15T12:47:45;13.60;91.80
4509;DHT22;2267;48.816;9.230;2023-02-15T12:50:14;13.80;91.70
4509;DHT22;2267;48.816;9.230;2023-02-15T12:52:50;13.90;91.50
4509;DHT22;2267;48.816;9.230;2023-02-15T12:55:23;14.00;91.20
4509;DHT22;2267;48.816;9.230;2023-02-15T12:58:17;14.10;91.20
4509;DHT22;2267;48.816;9.230;2023-02-15T13:00:45;14.10;91.10
4509;DHT22;2267;48.816;9.230;2023-02-15T13:03:20;14.20;91.00
4509;DHT22;2267;48.816;9.230;2023-02-15T13:05:53;14.30;90.90
4509;DHT22;2267;48.816;9.230;2023-02-15T13:08:28;14.40;90.90
4509;DHT22;2267;48.816;9.230;2023-02-15T13:11:02;14.40;90.70
4509;DHT22;2267;48.816;9.230;2023-02-15T13:13:35;14.50;90.80
4509;DHT22;2267;48.816;9.230;2023-02-15T13:16:07;14.50;90.70
4509;DHT22;2267;48.816;9.230;2023-02-15T13:18:46;14.60;90.60
4509;DHT22;2267;48.816;9.230;2023-02-15T13:21:22;14.70;90.60
4509;DHT22;2267;48.816;9.230;2023-02-15T13:23:55;14.80;90.50
4509;DHT22;2267;48.816;9.230;2023-02-15T13:26:26;14.80;90.30
4509;DHT22;2267;48.816;9.230;2023-02-15T13:28:59;14.90;90.30
4509;DHT22;2267;48.816;9.230;2023-02-15T13:31:28;15.00;90.00
4509;DHT22;2267;48.816;9.230;2023-02-15T13:39:39;15.40;89.80
4509;DHT22;2267;48.816;9.230;2023-02-15T13:42:38;15.10;89.60
4509;DHT22;2267;48.816;9.230;2023-02-15T13:45:24;15.10;89.00
4509;DHT22;2267;48.816;9.230;2023-02-15T14:01:57;15.20;88.20
4509;DHT22;2267;48.816;9.230;2023-02-15T14:21:15;15.00;86.70
4509;DHT22;2267;48.816;9.230;2023-02-15T14:24:09;15.00;86.70
4509;DHT22;2267;48.816;9.230;2023-02-15T14:26:47;14.90;86.20
4509;DHT22;2267;48.816;9.230;2023-02-15T14:29:33;14.80;86.40
4509;DHT22;2267;48.816;9.230;2023-02-15T14:32:12;14.60;86.40
4509;DHT22;2267;48.816;9.230;2023-02-15T14:34:50;14.40;86.50
4509;DHT22;2267;48.816;9.230;2023-02-15T14:48:49;13.60;87.70
4509;DHT22;2267;48.816;9.230;2023-02-15T14:56:43;13.10;88.70
4509;DHT22;2267;48.816;9.230;2023-02-15T14:59:14;13.00;88.80
4509;DHT22;2267;48.816;9.230;2023-02-15T15:04:52;12.70;89.50
4509;DHT22;2267;48.816;9.230;2023-02-15T15:12:47;12.40;90.40
4509;DHT22;2267;48.816;9.230;2023-02-15T15:15:34;12.30;90.60
4509;DHT22;2267;48.816;9.230;2023-02-15T15:18:51;12.20;90.80
4509;DHT22;2267;48.816;9.230;2023-02-15T15:47:24;11.50;92.10
4509;DHT22;2267;48.816;9.230;2023-02-15T15:49:58;11.50;92.20
4509;DHT22;2267;48.816;9.230;2023-02-15T15:52:27;11.40;92.20
4509;DHT22;2267;48.816;9.230;2023-02-15T15:54:57;11.40;92.30
4509;DHT22;2267;48.816;9.230;2023-02-15T15:57:35;11.30;92.30
4509;DHT22;2267;48.816;9.230;2023-02-15T16:02:54;11.30;92.40
4509;DHT22;2267;48.816;9.230;2023-02-15T16:05:22;11.20;92.40
4509;DHT22;2267;48.816;9.230;2023-02-15T16:07:49;11.20;92.50
4509;DHT22;2267;48.816;9.230;2023-02-15T16:10:25;11.20;92.60
4509;DHT22;2267;48.816;9.230;2023-02-15T16:12:53;11.20;92.70
4509;DHT22;2267;48.816;9.230;2023-02-15T16:15:26;11.10;92.60
4509;DHT22;2267;48.816;9.230;2023-02-15T16:17:58;11.10;92.80
4509;DHT22;2267;48.816;9.230;2023-02-15T16:20:36;11.00;92.80
4509;DHT22;2267;48.816;9.230;2023-02-15T16:28:28;10.90;92.90
4509;DHT22;2267;48.816;9.230;2023-02-15T16:31:05;10.90;93.00
4509;DHT22;2267;48.816;9.230;2023-02-15T16:33:38;10.80;93.10
4509;DHT22;2267;48.816;9.230;2023-02-15T16:36:06;10.80;93.20
4509;DHT22;2267;48.816;9.230;2023-02-15T16:43:46;10.60;93.40
4509;DHT22;2267;48.816;9.230;2023-02-15T16:46:40;10.50;93.40
4509;DHT22;2267;48.816;9.230;2023-02-15T16:49:22;10.40;93.60
4509;DHT22;2267;48.816;9.230;2023-02-15T16:52:00;10.40;93.80
4509;DHT22;2267;48.816;9.230;2023-02-15T16:54:29;10.30;93.90
4509;DHT22;2267;48.816;9.230;2023-02-15T16:56:58;10.20;94.00
4509;DHT22;2267;48.816;9.230;2023-02-15T17:01:57;10.00;94.10
4509;DHT22;2267;48.816;9.230;2023-02-15T17:04:30;10.00;94.30
4509;DHT22;2267;48.816;9.230;2023-02-15T17:07:13;9.90;94.90
4509;DHT22;2267;48.816;9.230;2023-02-15T17:09:55;9.90;95.00
4509;DHT22;2267;48.816;9.230;2023-02-15T17:12:47;9.80;95.00
4509;DHT22;2267;48.816;9.230;2023-02-15T17:15:31;9.70;95.10
4509;DHT22;2267;48.816;9.230;2023-02-15T17:18:18;9.70;95.30
4509;DHT22;2267;48.816;9.230;2023-02-15T17:20:47;9.60;95.30
4509;DHT22;2267;48.816;9.230;2023-02-15T17:23:31;9.50;95.40
4509;DHT22;2267;48.816;9.230;2023-02-15T17:26:22;9.50;95.50
4509;DHT22;2267;48.816;9.230;2023-02-15T17:28:56;9.50;95.60
4509;DHT22;2267;48.816;9.230;2023-02-15T17:31:31;9.40;95.70
4509;DHT22;2267;48.816;9.230;2023-02-15T17:34:00;9.40;95.80
4509;DHT22;2267;48.816;9.230;2023-02-15T17:36:30;9.30;95.80
4509;DHT22;2267;48.816;9.230;2023-02-15T17:43:51;9.10;96.00
4509;DHT22;2267;48.816;9.230;2023-02-15T17:46:18;9.10;96.20
4509;DHT22;2267;48.816;9.230;2023-02-15T17:48:50;9.10;96.30
4509;DHT22;2267;48.816;9.230;2023-02-15T17:51:19;9.10;96.40
4509;DHT22;2267;48.816;9.230;2023-02-15T17:53:47;9.00;96.40
4509;DHT22;2267;48.816;9.230;2023-02-15T17:56:34;9.00;96.30
4509;DHT22;2267;48.816;9.230;2023-02-15T17:59:01;8.90;96.30
4509;DHT22;2267;48.816;9.230;2023-02-15T18:01:34;8.90;96.30
4509;DHT22;2267;48.816;9.230;2023-02-15T18:04:21;8.80;96.50
4509;DHT22;2267;48.816;9.230;2023-02-15T18:07:09;8.80;96.70
4509;DHT22;2267;48.816;9.230;2023-02-15T18:09:57;8.70;96.80
4509;DHT22;2267;48.816;9.230;2023-02-15T18:12:42;8.70;96.90
4509;DHT22;2267;48.816;9.230;2023-02-15T18:15:12;8.60;97.10
4509;DHT22;2267;48.816;9.230;2023-02-15T18:17:42;8.60;97.00
4509;DHT22;2267;48.816;9.230;2023-02-15T18:20:23;8.50;97.00
4509;DHT22;2267;48.816;9.230;2023-02-15T18:22:50;8.50;97.00
4509;DHT22;2267;48.816;9.230;2023-02-15T18:25:19;8.40;97.00
4509;DHT22;2267;48.816;9.230;2023-02-15T18:27:46;8.40;97.20
4509;DHT22;2267;48.816;9.230;2023-02-15T18:30:20;8.30;97.10
4509;DHT22;2267;48.816;9.230;2023-02-15T18:32:49;8.30;97.20
4509;DHT22;2267;48.816;9.230;2023-02-15T18:35:22;8.30;97.20
4509;DHT22;2267;48.816;9.230;2023-02-15T18:37:51;8.20;97.30
4509;DHT22;2267;48.816;9.230;2023-02-15T18:40:25;8.20;97.40
4509;DHT22;2267;48.816;9.230;2023-02-15T18:42:52;8.20;97.50
4509;DHT22;2267;48.816;9.230;2023-02-15T18:45:23;8.10;97.50
4509;DHT22;2267;48.816;9.230;2023-02-15T18:47:51;8.10;97.50
4509;DHT22;2267;48.816;9.230;2023-02-15T18:50:19;8.10;97.40
4509;DHT22;2267;48.816;9.230;2023-02-15T18:52:48;8.00;97.40
4509;DHT22;2267;48.816;9.230;2023-02-15T18:55:23;8.00;97.30
4509;DHT22;2267;48.816;9.230;2023-02-15T18:57:53;7.90;97.30
4509;DHT22;2267;48.816;9.230;2023-02-15T19:00:28;7.90;97.60
4509;DHT22;2267;48.816;9.230;2023-02-15T19:02:56;7.90;97.50
4509;DHT22;2267;48.816;9.230;2023-02-15T19:05:23;7.80;97.60
4509;DHT22;2267;48.816;9.230;2023-02-15T19:07:53;7.80;97.70
4509;DHT22;2267;48.816;9.230;2023-02-15T19:10:22;7.80;97.60
4509;DHT22;2267;48.816;9.230;2023-02-15T19:12:51;7.70;97.60
4509;DHT22;2267;48.816;9.230;2023-02-15T19:17:47;7.70;97.70
4509;DHT22;2267;48.816;9.230;2023-02-15T19:20:20;7.60;97.50
4509;DHT22;2267;48.816;9.230;2023-02-15T19:22:49;7.60;97.50
4509;DHT22;2267;48.816;9.230;2023-02-15T19:25:25;7.50;97.60
4509;DHT22;2267;48.816;9.230;2023-02-15T19:27:53;7.50;98.00
4509;DHT22;2267;48.816;9.230;2023-02-15T19:30:25;7.50;97.80
4509;DHT22;2267;48.816;9.230;2023-02-15T19:32:57;7.40;97.70
4509;DHT22;2267;48.816;9.230;2023-02-15T19:35:30;7.50;97.80
4509;DHT22;2267;48.816;9.230;2023-02-15T19:38:01;7.40;97.90
4509;DHT22;2267;48.816;9.230;2023-02-15T19:40:31;7.40;97.90
4509;DHT22;2267;48.816;9.230;2023-02-15T19:42:59;7.40;98.00
4509;DHT22;2267;48.816;9.230;2023-02-15T19:45:28;7.40;98.10
4509;DHT22;2267;48.816;9.230;2023-02-15T19:47:56;7.30;98.30
4509;DHT22;2267;48.816;9.230;2023-02-15T19:50:25;7.30;98.20
4509;DHT22;2267;48.816;9.230;2023-02-15T19:52:54;7.30;98.20
4509;DHT22;2267;48.816;9.230;2023-02-15T19:55:29;7.20;98.20
4509;DHT22;2267;48.816;9.230;2023-02-15T19:57:57;7.20;98.10
4509;DHT22;2267;48.816;9.230;2023-02-15T20:00:29;7.10;98.10
4509;DHT22;2267;48.816;9.230;2023-02-15T20:02:58;7.10;98.20
4509;DHT22;2267;48.816;9.230;2023-02-15T20:05:27;7.10;98.20
4509;DHT22;2267;48.816;9.230;2023-02-15T20:07:55;7.10;98.30
4509;DHT22;2267;48.816;9.230;2023-02-15T20:10:31;7.10;98.60
4509;DHT22;2267;48.816;9.230;2023-02-15T20:12:58;7.00;98.00
4509;DHT22;2267;48.816;9.230;2023-02-15T20:15:31;7.00;98.30